• Join FlightAware (Why Join?)
  • Login
  • US Flag 
03:17AM EST


 

Airport Tracker/Info


-or-


 

Live Flight TrackerFlight Track Log ✈ DLH203 ✈ 20-Aug-2014 ✈ EDDT / TXL - EDDF / FRA

Flight Track Log - Related Links

Times and Time Zones

All times are in EDT time to prevent confusion due to time zone crossing. See the DLH203 flight status page for this flight to view local times or setup timezone preferences in your user account.

Time Position Orientation Groundspeed Altitude Reporting Facility
EDT Latitude Longitude Course Direction KTS MPH feet Rate Location/Type
02:49PM 52.3601 12.8800 231° Southwest  Level Estimated
02:50PM 52.3100 12.7787 231° Southwest  Level Estimated
02:51PM 52.2598 12.6776 231° Southwest  Level Estimated
02:52PM 52.2095 12.5767 231° Southwest  Level Estimated
02:53PM 52.1591 12.4760 231° Southwest  Level Estimated
02:54PM 52.1086 12.3756 231° Southwest  Level Estimated
02:55PM 52.0581 12.2754 231° Southwest  Level Estimated
02:56PM 52.0075 12.1754 231° Southwest  Level Estimated
02:57PM 51.9567 12.0757 230° Southwest  Level Estimated
02:58PM 51.9059 11.9762 230° Southwest  Level Estimated
02:59PM 51.8551 11.8769 230° Southwest  Level Estimated
03:00PM 51.8041 11.7778 230° Southwest  Level Estimated
03:01PM 51.7530 11.6789 230° Southwest  Level Estimated
03:02PM 51.7019 11.5803 230° Southwest  Level Estimated
03:03PM 51.6507 11.4819 230° Southwest  Level Estimated
03:04PM 51.5994 11.3837 230° Southwest  Level Estimated
03:05PM 51.5480 11.2858 230° Southwest  Level Estimated
03:06PM 51.4966 11.1880 230° Southwest  Level Estimated
03:07PM 51.4450 11.0905 230° Southwest  Level Estimated
03:08PM 51.3934 10.9932 230° Southwest  Level Estimated
03:09PM 51.3417 10.8961 230° Southwest  Level Estimated
03:10PM 51.2899 10.7993 229° Southwest  Level Estimated
03:11PM 51.2380 10.7026 229° Southwest  Level Estimated
03:12PM 51.1861 10.6062 229° Southwest  Level Estimated
03:13PM 51.1341 10.5100 229° Southwest  Level Estimated
03:14PM 51.0820 10.4140 229° Southwest  Level Estimated
03:15PM 51.0298 10.3182 229° Southwest  Level Estimated
03:16PM 50.9776 10.2227 229° Southwest  Level Estimated
03:17PM 50.9252 10.1273 229° Southwest  Level Estimated
03:18PM 50.8728 10.0322 229° Southwest  Level Estimated
03:19PM 50.8203 9.9373 229° Southwest  Level Estimated
03:20PM 50.7677 9.8426 229° Southwest  Level Estimated
03:21PM 50.7151 9.7481 229° Southwest  Level Estimated
03:22PM 50.6624 9.6538 229° Southwest  Level Estimated
03:23PM 50.6096 9.5598 229° Southwest  Level Estimated
03:24PM 50.5567 9.4659 228° Southwest  Level Estimated
03:25PM 50.5038 9.3723 228° Southwest  Level Estimated
03:26PM 50.4508 9.2789 228° Southwest  Level Estimated
03:27PM 50.3977 9.1856 228° Southwest  Level Estimated
03:28PM 50.3445 9.0926 228° Southwest  Level Estimated
03:29PM 50.2912 8.9998 228° Southwest  Level Estimated
03:30PM 50.2379 8.9072 228° Southwest  Level Estimated
03:31PM 50.1846 8.8148 228° Southwest  Level Estimated
03:32PM 50.1311 8.7226 228° Southwest  Level Estimated
03:33PM 50.0775 8.6307 228° Southwest  Level Estimated
03:34PM 50.0264 8.5431 228° Southwest  Level Estimated
03:35PM 50.0264 8.5431 North  Level Estimated
03:36PM 50.0264 8.5431 North  Level Estimated
03:37PM 50.0264 8.5431 North  Level Estimated
03:38PM 50.0264 8.5431 North  Level Estimated
03:39PM 50.0264 8.5431 North  Level Estimated